createdAt,value
2023-03-23T00:00:30.038Z,2.60
2023-03-23T00:03:09.386Z,2.55
2023-03-23T00:05:52.496Z,2.42
2023-03-23T00:08:31.896Z,2.60
2023-03-23T00:11:11.739Z,2.43
2023-03-23T00:13:59.585Z,2.53
2023-03-23T00:16:43.027Z,2.54
2023-03-23T00:19:22.598Z,2.48
2023-03-23T00:22:03.939Z,2.59
2023-03-23T00:24:43.495Z,2.43
2023-03-23T00:27:23.874Z,2.63
2023-03-23T00:30:08.378Z,2.61
2023-03-23T00:32:47.682Z,2.60
2023-03-23T00:35:27.507Z,2.46
2023-03-23T00:38:06.966Z,2.40
2023-03-23T00:40:47.132Z,2.39
2023-03-23T00:43:31.154Z,2.76
2023-03-23T00:46:16.960Z,2.33
2023-03-23T00:48:56.383Z,2.47
2023-03-23T00:51:35.745Z,2.46
2023-03-23T00:54:16.385Z,2.40
2023-03-23T00:56:55.804Z,2.44
2023-03-23T00:59:35.457Z,2.16
2023-03-23T01:02:20.374Z,2.32
2023-03-23T01:05:00.468Z,2.26
2023-03-23T01:07:39.934Z,2.46
2023-03-23T01:10:21.757Z,2.46
2023-03-23T01:13:02.187Z,2.45
2023-03-23T01:15:42.183Z,2.41
2023-03-23T01:18:33.865Z,2.37
2023-03-23T01:21:14.182Z,2.29
2023-03-23T01:23:53.953Z,2.24
2023-03-23T01:26:35.252Z,2.26
2023-03-23T01:29:15.940Z,2.44
2023-03-23T01:31:55.593Z,2.49
2023-03-23T01:34:40.258Z,2.43
2023-03-23T01:37:22.549Z,2.40
2023-03-23T01:40:02.427Z,2.35
2023-03-23T01:42:44.798Z,2.60
2023-03-23T01:45:37.922Z,2.53
2023-03-23T01:48:24.282Z,2.34
2023-03-23T01:51:15.416Z,2.41
2023-03-23T01:53:59.243Z,2.21
2023-03-23T01:56:47.875Z,2.40
2023-03-23T01:59:29.481Z,2.41
2023-03-23T02:02:10.224Z,2.55
2023-03-23T02:04:52.617Z,2.43
2023-03-23T02:07:37.655Z,2.29
2023-03-23T02:10:19.661Z,2.21
2023-03-23T02:12:59.086Z,2.54
2023-03-23T02:15:50.656Z,2.42
2023-03-23T02:18:52.703Z,2.31
2023-03-23T02:21:55.056Z,2.39
2023-03-23T02:25:11.201Z,2.26
2023-03-23T02:28:16.852Z,2.24
2023-03-23T02:31:23.089Z,2.09
2023-03-23T02:34:15.732Z,2.30
2023-03-23T02:37:00.555Z,2.15
2023-03-23T02:39:47.698Z,2.35
2023-03-23T02:42:34.768Z,2.34
2023-03-23T02:45:18.694Z,2.40
2023-03-23T02:48:01.559Z,2.41
2023-03-23T02:50:50.530Z,2.52
2023-03-23T02:53:33.458Z,2.39
2023-03-23T02:56:16.783Z,2.64
2023-03-23T02:58:56.127Z,2.29
2023-03-23T03:01:59.096Z,2.49
2023-03-23T03:04:43.157Z,2.48
2023-03-23T03:08:00.999Z,2.29
2023-03-23T03:10:50.607Z,2.46
2023-03-23T03:13:43.205Z,2.31
2023-03-23T03:16:33.090Z,2.31
2023-03-23T03:19:19.953Z,2.24
2023-03-23T03:22:03.069Z,2.46
2023-03-23T03:24:50.479Z,2.36
2023-03-23T03:27:30.051Z,2.63
2023-03-23T03:30:17.522Z,2.43
2023-03-23T03:33:02.401Z,2.74
2023-03-23T03:35:47.029Z,2.63
2023-03-23T03:38:26.342Z,3.12
2023-03-23T03:41:10.840Z,2.96
2023-03-23T03:43:51.026Z,2.77
2023-03-23T03:46:33.096Z,2.54
2023-03-23T03:49:15.721Z,2.39
2023-03-23T03:51:55.036Z,2.56
2023-03-23T03:54:34.401Z,2.44
2023-03-23T03:57:19.734Z,2.54
2023-03-23T03:59:59.900Z,2.46
2023-03-23T04:02:39.172Z,2.55
2023-03-23T04:05:18.822Z,2.47
2023-03-23T04:08:09.692Z,2.44
2023-03-23T04:10:50.927Z,2.39
2023-03-23T04:13:35.709Z,2.29
2023-03-23T04:16:18.803Z,2.64
2023-03-23T04:18:58.508Z,2.38
2023-03-23T04:21:38.154Z,2.66
2023-03-23T04:24:23.170Z,2.36
2023-03-23T04:27:19.335Z,2.58
2023-03-23T04:30:05.059Z,2.46
2023-03-23T04:32:44.910Z,2.58
2023-03-23T04:35:26.938Z,2.72
2023-03-23T04:38:06.415Z,2.66
2023-03-23T04:40:46.998Z,2.94
2023-03-23T04:43:27.306Z,2.97
2023-03-23T04:46:12.006Z,2.82
2023-03-23T04:48:51.357Z,3.13
2023-03-23T04:51:30.883Z,3.18
2023-03-23T04:54:10.820Z,3.79
2023-03-23T04:56:50.286Z,3.99
2023-03-23T04:59:30.161Z,4.01
2023-03-23T05:02:15.235Z,4.24
2023-03-23T05:04:54.861Z,4.01
2023-03-23T05:07:35.036Z,4.15
2023-03-23T05:10:17.912Z,4.21
2023-03-23T05:13:04.477Z,4.05
2023-03-23T05:15:44.221Z,4.17
2023-03-23T05:18:29.392Z,3.68
2023-03-23T05:21:09.337Z,3.54
2023-03-23T05:23:49.483Z,3.68
2023-03-23T05:26:32.457Z,3.71
2023-03-23T05:29:12.936Z,3.34
2023-03-23T05:31:52.406Z,4.05
2023-03-23T05:34:36.885Z,13.10
2023-03-23T05:37:16.498Z,10.66
2023-03-23T05:39:57.553Z,7.00
2023-03-23T05:42:37.003Z,4.85
2023-03-23T05:45:18.597Z,4.47
2023-03-23T05:47:59.313Z,7.57
2023-03-23T05:50:43.711Z,6.98
2023-03-23T05:53:23.117Z,6.49
2023-03-23T05:56:08.967Z,8.79
2023-03-23T05:58:48.451Z,9.59
2023-03-23T06:01:27.823Z,8.97
2023-03-23T06:04:07.472Z,8.62
2023-03-23T06:06:52.709Z,6.18
2023-03-23T06:09:32.823Z,7.89
2023-03-23T06:12:12.640Z,6.58
2023-03-23T06:14:52.037Z,3.16
2023-03-23T06:17:31.339Z,3.15
2023-03-23T06:20:12.246Z,2.96
2023-03-23T06:22:56.641Z,3.02
2023-03-23T06:25:35.992Z,2.87
2023-03-23T06:28:15.903Z,2.93
2023-03-23T06:30:55.270Z,2.62
2023-03-23T06:33:34.682Z,2.73
2023-03-23T06:36:14.944Z,2.82
2023-03-23T06:38:59.687Z,2.74
2023-03-23T06:41:39.399Z,2.64
2023-03-23T06:44:18.837Z,2.75
2023-03-23T06:46:58.152Z,2.67
2023-03-23T06:49:37.425Z,2.45
2023-03-23T06:52:16.810Z,2.62
2023-03-23T06:55:01.744Z,2.35
2023-03-23T06:57:42.120Z,2.49
2023-03-23T07:00:22.888Z,2.44
2023-03-23T07:03:02.219Z,2.58
2023-03-23T07:05:42.856Z,2.61
2023-03-23T07:08:22.570Z,2.34
2023-03-23T07:11:07.609Z,2.33
2023-03-23T07:13:47.325Z,2.30
2023-03-23T07:16:26.657Z,2.28
2023-03-23T07:19:05.996Z,2.25
2023-03-23T07:21:45.384Z,2.25
2023-03-23T07:24:24.636Z,2.21
2023-03-23T07:27:09.928Z,2.15
2023-03-23T07:29:49.219Z,2.31
2023-03-23T07:32:28.557Z,3.01
2023-03-23T07:35:08.537Z,2.43
2023-03-23T07:37:51.152Z,2.45
2023-03-23T07:40:30.921Z,2.46
2023-03-23T07:43:15.991Z,23.08
2023-03-23T07:45:55.344Z,5.90
2023-03-23T07:48:34.880Z,3.22
2023-03-23T07:51:15.481Z,2.73
2023-03-23T07:53:54.780Z,2.68
2023-03-23T07:56:34.080Z,2.42
2023-03-23T07:59:18.540Z,2.41
2023-03-23T08:02:00.195Z,2.41
2023-03-23T08:04:40.018Z,2.82
2023-03-23T08:07:21.301Z,2.58
2023-03-23T08:10:00.676Z,2.37
2023-03-23T08:12:40.367Z,2.60
2023-03-23T08:15:24.919Z,2.34
2023-03-23T08:18:04.743Z,2.27
2023-03-23T08:20:44.772Z,2.41
2023-03-23T08:23:24.103Z,2.29
2023-03-23T08:26:03.611Z,2.28
2023-03-23T08:28:44.678Z,2.37
2023-03-23T08:31:29.649Z,2.45
2023-03-23T08:34:09.046Z,2.65
2023-03-23T08:36:48.722Z,2.84
2023-03-23T08:39:28.037Z,2.54
2023-03-23T08:42:07.674Z,2.48
2023-03-23T08:44:47.021Z,2.21
2023-03-23T08:47:31.581Z,2.26
2023-03-23T08:50:13.104Z,2.43
2023-03-23T08:52:52.600Z,2.25
2023-03-23T08:55:32.028Z,2.20
2023-03-23T08:58:11.730Z,2.10
2023-03-23T09:00:51.337Z,2.25
2023-03-23T09:03:37.036Z,2.07
2023-03-23T09:06:18.344Z,1.92
2023-03-23T09:08:57.841Z,1.96
2023-03-23T09:11:37.122Z,1.97
2023-03-23T09:14:16.546Z,1.95
2023-03-23T09:16:55.920Z,2.02
2023-03-23T09:19:43.625Z,3.74
2023-03-23T09:22:25.482Z,1.93
2023-03-23T09:25:05.830Z,3.63
2023-03-23T09:27:49.137Z,2.12
2023-03-23T09:30:29.197Z,1.75
2023-03-23T09:33:10.259Z,1.60
2023-03-23T09:35:54.800Z,2.20
2023-03-23T09:38:34.355Z,4.62
2023-03-23T09:41:28.201Z,2.07
2023-03-23T09:44:18.333Z,1.80
2023-03-23T09:47:08.692Z,4.64
2023-03-23T09:49:53.535Z,1.71
2023-03-23T09:52:47.548Z,1.91
2023-03-23T09:55:30.714Z,1.91
2023-03-23T09:58:19.488Z,1.62
2023-03-23T10:01:06.064Z,1.89
2023-03-23T10:03:48.975Z,2.09
2023-03-23T10:06:28.274Z,1.78
2023-03-23T10:09:14.389Z,1.62
2023-03-23T10:12:04.867Z,1.42
2023-03-23T10:14:57.816Z,1.74
2023-03-23T10:17:42.321Z,1.54
2023-03-23T10:20:37.353Z,1.70
2023-03-23T10:23:32.473Z,1.59
2023-03-23T10:26:30.321Z,1.51
2023-03-23T10:29:22.210Z,1.64
2023-03-23T10:32:07.672Z,1.61
2023-03-23T10:34:53.928Z,1.49
2023-03-23T10:37:38.570Z,1.51
2023-03-23T10:40:26.098Z,1.42
2023-03-23T10:43:11.414Z,1.44
2023-03-23T10:46:00.744Z,1.55
2023-03-23T10:48:46.019Z,1.36
2023-03-23T10:51:30.816Z,1.37
2023-03-23T10:54:13.047Z,1.39
2023-03-23T10:56:59.558Z,1.28
2023-03-23T10:59:49.413Z,1.41
2023-03-23T11:02:32.586Z,1.33
2023-03-23T11:05:24.057Z,1.29
2023-03-23T11:08:05.988Z,1.27
2023-03-23T11:10:48.908Z,1.34
2023-03-23T11:13:31.002Z,1.50
2023-03-23T11:16:18.683Z,2.29
2023-03-23T11:18:57.984Z,1.90
2023-03-23T11:21:37.420Z,2.35
2023-03-23T11:24:17.253Z,1.87
2023-03-23T11:26:58.878Z,1.39
2023-03-23T11:29:39.918Z,1.59
2023-03-23T11:32:25.307Z,1.70
2023-03-23T11:35:16.226Z,1.67
2023-03-23T11:38:00.052Z,1.51
2023-03-23T11:40:40.448Z,2.25
2023-03-23T11:43:26.618Z,2.50
2023-03-23T11:46:12.507Z,2.78
2023-03-23T11:49:15.623Z,3.23
2023-03-23T11:52:04.241Z,1.91
2023-03-23T11:54:50.584Z,1.71
2023-03-23T11:57:32.758Z,1.66
2023-03-23T12:00:22.318Z,1.80
2023-03-23T12:03:31.897Z,1.72
2023-03-23T12:06:20.842Z,1.64
2023-03-23T12:09:13.107Z,1.56
2023-03-23T12:12:06.283Z,1.66
2023-03-23T12:14:56.093Z,1.77
2023-03-23T12:17:48.088Z,1.46
2023-03-23T12:20:43.192Z,1.54
2023-03-23T12:23:39.610Z,1.64
2023-03-23T12:26:28.432Z,1.71
2023-03-23T12:29:27.019Z,1.65
2023-03-23T12:32:34.981Z,2.03
2023-03-23T12:35:29.354Z,2.45
2023-03-23T12:38:35.059Z,1.99
2023-03-23T12:41:26.764Z,1.85
2023-03-23T12:44:12.297Z,1.93
2023-03-23T12:47:08.030Z,1.96
2023-03-23T12:49:55.408Z,1.78
2023-03-23T12:52:43.719Z,1.69
2023-03-23T12:55:30.529Z,1.77
2023-03-23T12:58:18.196Z,1.75
2023-03-23T13:01:06.544Z,3.53
2023-03-23T13:03:52.498Z,1.46
2023-03-23T13:06:40.329Z,1.50
2023-03-23T13:09:25.957Z,1.94
2023-03-23T13:12:10.267Z,2.30
2023-03-23T13:15:09.024Z,1.31
2023-03-23T13:17:57.768Z,1.12
2023-03-23T13:21:03.198Z,1.12
2023-03-23T13:23:47.059Z,1.17
2023-03-23T13:26:29.383Z,1.05
2023-03-23T13:29:16.040Z,0.94
2023-03-23T13:32:00.671Z,0.95
2023-03-23T13:34:40.980Z,1.07
2023-03-23T13:37:34.446Z,0.97
2023-03-23T13:40:34.286Z,1.08
2023-03-23T13:43:17.141Z,1.19
2023-03-23T13:45:57.979Z,1.09
2023-03-23T13:48:50.973Z,0.97
2023-03-23T13:51:44.088Z,1.93
2023-03-23T13:54:32.101Z,3.70
2023-03-23T13:57:30.801Z,1.44
2023-03-23T14:00:20.458Z,2.29
2023-03-23T14:03:06.496Z,8.15
2023-03-23T14:05:54.449Z,1.26
2023-03-23T14:08:47.599Z,1.48
2023-03-23T14:11:32.878Z,1.21
2023-03-23T14:14:15.310Z,1.26
2023-03-23T14:16:59.502Z,1.43
2023-03-23T14:19:39.390Z,1.40
2023-03-23T14:22:32.524Z,1.50
2023-03-23T14:25:20.355Z,1.43
2023-03-23T14:28:00.481Z,1.51
2023-03-23T14:30:45.115Z,1.49
2023-03-23T14:33:24.579Z,1.48
2023-03-23T14:36:07.813Z,1.65
2023-03-23T14:38:52.692Z,1.57
2023-03-23T14:41:32.117Z,1.54
2023-03-23T14:44:16.660Z,1.62
2023-03-23T14:46:57.451Z,1.59
2023-03-23T14:49:41.152Z,2.17
2023-03-23T14:52:22.536Z,1.70
2023-03-23T14:55:21.842Z,1.58
2023-03-23T14:58:01.111Z,3.93
2023-03-23T15:00:46.958Z,2.21
2023-03-23T15:03:27.785Z,2.09
2023-03-23T15:06:13.217Z,1.99
2023-03-23T15:08:56.848Z,2.82
2023-03-23T15:11:44.039Z,1.76
2023-03-23T15:14:27.651Z,2.02
2023-03-23T15:17:09.349Z,1.74
2023-03-23T15:19:51.862Z,1.94
2023-03-23T15:22:34.146Z,2.24
2023-03-23T15:25:19.758Z,1.94
2023-03-23T15:28:06.702Z,2.08
2023-03-23T15:30:56.143Z,1.96
2023-03-23T15:33:44.385Z,2.04
2023-03-23T15:36:26.256Z,1.98
2023-03-23T15:39:06.543Z,1.95
2023-03-23T15:41:55.670Z,2.07
2023-03-23T15:44:42.613Z,1.79
2023-03-23T15:47:26.286Z,1.82
2023-03-23T15:50:16.357Z,1.86
2023-03-23T15:52:56.954Z,1.87
2023-03-23T15:55:43.758Z,1.85
2023-03-23T15:58:23.210Z,1.96
2023-03-23T16:01:12.129Z,1.82
2023-03-23T16:03:56.925Z,2.07
2023-03-23T16:06:40.335Z,2.10
2023-03-23T16:09:23.115Z,2.02
2023-03-23T16:12:02.664Z,2.22
2023-03-23T16:14:42.169Z,2.13
2023-03-23T16:17:28.126Z,2.14
2023-03-23T16:20:08.390Z,2.05
2023-03-23T16:22:47.903Z,1.91
2023-03-23T16:25:27.206Z,2.44
2023-03-23T16:28:06.530Z,2.39
2023-03-23T16:30:46.810Z,2.75
2023-03-23T16:33:31.455Z,3.96
2023-03-23T16:36:11.865Z,3.16
2023-03-23T16:38:54.262Z,3.45
2023-03-23T16:41:34.275Z,3.14
2023-03-23T16:44:14.227Z,3.87
2023-03-23T16:46:53.502Z,2.83
2023-03-23T16:49:38.178Z,3.10
2023-03-23T16:52:17.723Z,3.58
2023-03-23T16:54:57.032Z,2.61
2023-03-23T16:57:37.105Z,2.51
2023-03-23T17:00:23.083Z,2.48
2023-03-23T17:03:03.964Z,2.24
2023-03-23T17:05:48.662Z,2.38
2023-03-23T17:08:28.348Z,2.37
2023-03-23T17:11:08.080Z,2.26
2023-03-23T17:13:47.353Z,2.26
2023-03-23T17:16:26.751Z,2.20
2023-03-23T17:19:06.070Z,2.47
2023-03-23T17:21:50.828Z,2.47
2023-03-23T17:24:30.164Z,2.48
2023-03-23T17:27:09.456Z,2.36
2023-03-23T17:29:49.007Z,3.53
2023-03-23T17:32:28.301Z,4.25
2023-03-23T17:35:07.805Z,3.14
2023-03-23T17:37:52.275Z,5.70
2023-03-23T17:40:32.137Z,6.50
2023-03-23T17:43:12.196Z,9.96
2023-03-23T17:45:51.489Z,13.07
2023-03-23T17:48:31.009Z,10.64
2023-03-23T17:51:11.149Z,11.70
2023-03-23T17:53:55.586Z,12.31
2023-03-23T17:56:34.969Z,12.68
2023-03-23T17:59:15.037Z,12.75
2023-03-23T18:01:54.340Z,14.03
2023-03-23T18:04:33.790Z,19.20
2023-03-23T18:07:13.086Z,22.68
2023-03-23T18:09:57.625Z,10.92
2023-03-23T18:12:37.062Z,6.13
2023-03-23T18:15:17.609Z,3.74
2023-03-23T18:17:57.054Z,3.76
2023-03-23T18:20:37.021Z,4.34
2023-03-23T18:23:16.307Z,4.23
2023-03-23T18:26:00.671Z,3.88
2023-03-23T18:28:41.392Z,3.02
2023-03-23T18:31:22.657Z,3.57
2023-03-23T18:34:02.339Z,3.27
2023-03-23T18:36:42.596Z,2.70
2023-03-23T18:39:21.963Z,2.45
2023-03-23T18:42:06.511Z,2.46
2023-03-23T18:44:46.127Z,2.54
2023-03-23T18:47:25.454Z,2.47
2023-03-23T18:50:04.782Z,2.70
2023-03-23T18:52:44.566Z,2.63
2023-03-23T18:55:25.993Z,2.59
2023-03-23T18:58:10.352Z,3.11
2023-03-23T19:00:52.083Z,3.73
2023-03-23T19:03:32.171Z,3.55
2023-03-23T19:06:12.885Z,5.10
2023-03-23T19:08:53.151Z,4.07
2023-03-23T19:11:33.094Z,4.01
2023-03-23T19:14:18.833Z,4.56
2023-03-23T19:16:58.680Z,13.47
2023-03-23T19:19:38.455Z,5.83
2023-03-23T19:22:17.929Z,8.04
2023-03-23T19:24:57.317Z,8.90
2023-03-23T19:27:54.952Z,16.28
2023-03-23T19:30:42.190Z,9.24
2023-03-23T19:33:22.870Z,8.16
2023-03-23T19:36:10.218Z,7.92
2023-03-23T19:38:52.519Z,5.56
2023-03-23T19:41:33.240Z,5.71
2023-03-23T19:44:13.477Z,5.43
2023-03-23T19:46:58.088Z,4.83
2023-03-23T19:49:37.575Z,5.31
2023-03-23T19:52:18.801Z,4.98
2023-03-23T19:54:58.264Z,4.71
2023-03-23T19:57:38.241Z,5.04
2023-03-23T20:00:18.628Z,5.40
2023-03-23T20:03:03.061Z,5.21
2023-03-23T20:05:43.400Z,5.31
2023-03-23T20:08:22.807Z,5.32
2023-03-23T20:11:09.819Z,6.15
2023-03-23T20:13:49.856Z,7.44
2023-03-23T20:16:29.878Z,7.16
2023-03-23T20:19:14.699Z,7.78
2023-03-23T20:21:54.195Z,8.19
2023-03-23T20:24:33.496Z,7.46
2023-03-23T20:27:13.528Z,7.98
2023-03-23T20:29:53.466Z,7.08
2023-03-23T20:32:34.279Z,7.78
2023-03-23T20:35:18.769Z,6.82
2023-03-23T20:37:58.775Z,6.86
2023-03-23T20:40:38.020Z,7.06
2023-03-23T20:43:17.569Z,8.77
2023-03-23T20:45:57.069Z,7.21
2023-03-23T20:48:39.750Z,6.24
2023-03-23T20:51:24.662Z,6.24
2023-03-23T20:54:04.816Z,7.15
2023-03-23T20:56:44.836Z,8.33
2023-03-23T20:59:24.576Z,7.11
2023-03-23T21:02:05.887Z,8.04
2023-03-23T21:04:46.487Z,6.86
2023-03-23T21:07:31.825Z,7.42
2023-03-23T21:10:13.924Z,7.31
2023-03-23T21:12:53.186Z,7.59
2023-03-23T21:15:32.664Z,7.62
2023-03-23T21:18:12.094Z,8.05
2023-03-23T21:20:51.859Z,7.56
2023-03-23T21:23:36.836Z,7.56
2023-03-23T21:26:17.843Z,8.64
2023-03-23T21:29:01.116Z,8.44
2023-03-23T21:31:40.636Z,8.76
2023-03-23T21:34:20.227Z,8.31
2023-03-23T21:36:59.564Z,8.26
2023-03-23T21:39:43.894Z,10.44
2023-03-23T21:42:23.221Z,9.28
2023-03-23T21:45:03.780Z,8.51
2023-03-23T21:47:44.320Z,8.02
2023-03-23T21:50:25.385Z,8.37
2023-03-23T21:53:04.965Z,8.42
2023-03-23T21:55:52.605Z,8.62
2023-03-23T21:58:33.398Z,7.48
2023-03-23T22:01:14.160Z,9.33
2023-03-23T22:03:53.534Z,9.81
2023-03-23T22:06:35.551Z,9.95
2023-03-23T22:09:14.877Z,9.92
2023-03-23T22:11:59.326Z,9.96
2023-03-23T22:14:38.663Z,10.16
2023-03-23T22:17:18.694Z,10.08
2023-03-23T22:19:58.167Z,8.91
2023-03-23T22:22:37.644Z,8.88
2023-03-23T22:25:16.992Z,8.10
2023-03-23T22:28:01.740Z,7.92
2023-03-23T22:30:41.919Z,8.10
2023-03-23T22:33:21.193Z,7.71
2023-03-23T22:36:01.415Z,7.35
2023-03-23T22:38:41.166Z,7.37
2023-03-23T22:41:26.373Z,7.46
2023-03-23T22:44:12.798Z,7.61
2023-03-23T22:46:53.031Z,7.59
2023-03-23T22:49:32.337Z,8.70
2023-03-23T22:52:11.975Z,7.73
2023-03-23T22:54:51.255Z,7.04
2023-03-23T22:57:31.889Z,6.84
2023-03-23T23:00:18.666Z,7.21
2023-03-23T23:02:58.067Z,6.98
2023-03-23T23:05:37.400Z,7.64
2023-03-23T23:08:18.236Z,8.44
2023-03-23T23:10:59.570Z,7.95
2023-03-23T23:13:40.029Z,7.70
2023-03-23T23:16:27.449Z,7.51
2023-03-23T23:19:06.883Z,7.14
2023-03-23T23:21:46.161Z,7.16
2023-03-23T23:24:27.703Z,7.08
2023-03-23T23:27:07.043Z,7.05
2023-03-23T23:29:46.399Z,6.83
2023-03-23T23:32:30.991Z,6.51
2023-03-23T23:35:11.957Z,6.79
2023-03-23T23:37:51.312Z,6.71
2023-03-23T23:40:30.845Z,6.66
2023-03-23T23:43:12.005Z,6.53
2023-03-23T23:45:51.776Z,7.18
2023-03-23T23:48:36.164Z,7.04
2023-03-23T23:51:17.606Z,6.51
2023-03-23T23:53:59.687Z,6.40
2023-03-23T23:56:39.132Z,6.82
2023-03-23T23:59:18.488Z,6.99
